Flight Track Log - Related Links

Times and Time Zones

All times are in EDT time to prevent confusion due to time zone crossing. See the ASQ2525 flight status page for this flight to view local times or setup timezone preferences in your user account.

Time Position Orientation Groundspeed Altitude Reporting Facility
EDT Latitude Longitude Course Direction KTS km/h feet Rate Location/Type
Tue 15:01:21 32.9167 -97.0500 348° North 157 291 2.300  Level Dallas / Fort Worth TRACON
Tue 15:02:22 32.9833 -97.0667 348° North 247 457 3.900 2.479 Climbing Dallas / Fort Worth TRACON
Tue 15:03:22 33.0167 -97.1333 301° West 250 463 7.300 2.723 Climbing Dallas / Fort Worth TRACON
Tue 15:04:43 32.9939 -97.2425 256° West 245 454 10.300 1.830 Climbing Fort Worth Center
Tue 15:05:43 32.9419 -97.2972 221° Southwest 276 512 11.600 1.500 Climbing Fort Worth Center
Tue 15:06:43 32.8417 -97.2897 176° South 294 544 13.300 1.600 Climbing Fort Worth Center
Tue 15:07:43 32.7478 -97.2800 175° South 331 613 14.800 1.700 Climbing Fort Worth Center
Tue 15:08:43 32.6494 -97.2581 169° South 358 663 16.700 1.700 Climbing Fort Worth Center
Tue 15:09:43 32.5514 -97.2383 170° South 358 663 18.200 1.550 Climbing Fort Worth Center
Tue 15:10:43 32.4511 -97.2189 171° South 367 679 19.800 1.450 Climbing Fort Worth Center
Tue 15:11:43 32.3508 -97.1994 171° South 374 692 21.100 1.300 Climbing Fort Worth Center
Tue 15:12:43 32.2444 -97.1947 178° South 374 692 22.400 1.200 Climbing Fort Worth Center
Tue 15:13:43 32.1381 -97.2047 185° South 381 705 23.500 1.100 Climbing Fort Worth Center
Tue 15:14:43 32.0419 -97.2222 189° South 386 715 24.600 1.150 Climbing Fort Worth Center
Tue 15:15:43 31.9397 -97.2347 186° South 380 703 25.800 1.100 Climbing Fort Worth Center
Tue 15:16:43 31.8333 -97.2494 187° South 380 703 26.800 660 Climbing Fort Worth Center
Tue 15:19:03 31.5894 -97.3047 191° South 391 724 28.000 356 Climbing Houston Center
Tue 15:20:05 31.4836 -97.3533 201° Southwest 403 747 28.000  Level Houston Center
Tue 15:21:07 31.3594 -97.4114 202° Southwest 407 753 28.000  Level Houston Center
Tue 15:22:09 31.2522 -97.4622 202° Southwest 411 761 28.000  Level Houston Center
Tue 15:23:11 31.1447 -97.5131 202° Southwest 416 771 28.000  Level Houston Center
Tue 15:24:13 31.0367 -97.5633 202° Southwest 418 774 28.000  Level Houston Center
Tue 15:25:15 30.9281 -97.6131 201° Southwest 420 777 28.000  Level Houston Center
Tue 15:26:17 30.8011 -97.6728 202° Southwest 421 779 28.000  Level Houston Center
Tue 15:27:20 30.6928 -97.7222 201° Southwest 416 771 28.000  Level Houston Center
Tue 15:28:22 30.5836 -97.7725 202° Southwest 419 776 28.000  Level Houston Center
Tue 15:29:24 30.4856 -97.8436 212° Southwest 409 758 28.000  Level Houston Center
Tue 15:30:26 30.3892 -97.9144 212° Southwest 407 753 28.000  Level Houston Center
Tue 15:31:28 30.2794 -97.9944 212° Southwest 409 758 28.000  Level Houston Center
Tue 15:32:30 30.1839 -98.0658 213° Southwest 408 756 28.000  Level Houston Center
Tue 15:33:33 30.0808 -98.1422 213° Southwest 408 756 28.000  Level Houston Center
Tue 15:34:35 29.9850 -98.2125 212° Southwest 408 756 28.000  Level Houston Center
Tue 15:35:37 29.8814 -98.2875 212° Southwest 409 758 28.000  Level Houston Center
Tue 15:36:39 29.7844 -98.3583 212° Southwest 411 761 28.000 -194 Level Houston Center
Tue 15:37:41 29.6808 -98.4339 212° Southwest 409 758 27.600 -629 Descending Houston Center
Tue 15:38:43 29.5706 -98.4414 183° South 450 834 26.700 -968 Descending Houston Center
Tue 15:39:45 29.4331 -98.4025 166° South 455 843 25.600 -1.008 Descending Houston Center
Tue 15:40:48 29.2992 -98.3669 167° South 459 850 24.600 -768 Descending Houston Center
Tue 15:41:50 29.1750 -98.3333 167° South 457 847 24.000 -290 Descending Houston Center
Tue 15:42:52 29.0436 -98.2981 167° South 450 834 24.000  Level Houston Center
Tue 15:43:54 28.9231 -98.2653 167° South 447 827 24.000  Level Houston Center
Tue 15:44:56 28.7947 -98.2306 167° South 440 814 24.000 -97 Level Houston Center
Tue 15:45:58 28.6964 -98.2050 167° South 441 816 23.800 -1.452 Descending Houston Center
Tue 15:47:00 28.5483 -98.1644 166° South 452 837 21.000 -2.448 Descending Houston Center
Tue 15:48:03 28.4489 -98.0844 145° Southeast 441 816 18.700 -2.304 Descending Houston Center
Tue 15:49:05 28.3683 -97.9886 134° Southeast 434 803 16.200 -2.371 Descending Houston Center
Tue 15:50:07 28.2906 -97.8981 134° Southeast 412 763 13.800 -2.323 Descending Houston Center
Tue 15:51:09 28.2172 -97.8117 134° Southeast 394 729 11.400 -2.115 Descending Houston Center
Tue 15:52:09 28.1406 -97.7250 135° Southeast 294 544 9.500 -2.323 Descending Houston Center
Tue 15:53:13 28.0906 -97.6642 133° Southeast 268 496 6.600 -2.410 Descending Houston Center
Tue 15:54:11 28.0392 -97.6036 134° Southeast 250 463 4.600 -1.311 Descending Houston Center
Tue 15:55:12 27.9889 -97.5464 135° Southeast 243 451 4.000 -776 Descending Houston Center
Tue 15:56:07 27.9403 -97.5436 177° South 228 422 3.100 -983 Descending Houston Center
Tue 15:57:08 27.9036 -97.5936 230° Southwest 209 388 2.100 -469 Descending Houston Center
Tue 15:58:15 27.8508 -97.5936 180° South 167 309 2.100 -446 Level Houston Center
Tue 15:59:09 27.8203 -97.5625 138° Southeast 148 274 1.200 -793 Descending Houston Center
Tue 16:00:16 27.7917 -97.5308 136° Southeast 118 219 500 -627 Descending Houston Center
Tue 16:02:00 27.7667 -97.5000 204° Southwest  Level FlightAware Approximate

Login

Don't have an account? Register now (free) for customized features, flight alerts, and more!